Time;durP1;ratioP1;P1;durP2;ratioP2;P2;SDS_P1;SDS_P2;PMS_P1;PMS_P2;Temp;Humidity;BMP_temperature;BMP_pressure;BME280_temperature;BME280_humidity;BME280_pressure;Samples;Min_cycle;Max_cycle;Signal;HPM_P1;HPM_P2
2021/09/25 00:00:27;;;;;;;8.70;3.90;;;;;;;;;;5091261;28;20475;-89
2021/09/25 00:02:52;;;;;;;8.18;4.25;;;;;;;;;;5108571;28;20027;-89
2021/09/25 00:05:17;;;;;;;11.98;4.70;;;;;;;;;;5093250;28;20015;-89
2021/09/25 00:07:43;;;;;;;13.48;4.53;;;;;;;;;;5112389;28;20050;-89
2021/09/25 00:10:08;;;;;;;12.13;5.07;;;;;;;;;;5081002;28;20013;-89
2021/09/25 00:12:33;;;;;;;12.48;4.97;;;;;;;;;;5096454;28;20093;-89
2021/09/25 00:14:59;;;;;;;12.23;4.68;;;;;;;;;;5094959;28;20493;-89
2021/09/25 00:17:24;;;;;;;13.13;4.78;;;;;;;;;;5096269;28;20471;-89
2021/09/25 00:19:49;;;;;;;12.02;4.93;;;;;;;;;;5112191;28;20020;-89
2021/09/25 00:22:14;;;;;;;9.70;4.45;;;;;;;;;;5094480;28;20024;-89
2021/09/25 00:24:40;;;;;;;9.50;3.92;;;;;;;;;;5111923;28;20390;-89
2021/09/25 00:27:05;;;;;;;13.15;4.70;;;;;;;;;;5094635;28;20015;-88
2021/09/25 00:29:30;;;;;;;12.43;4.38;;;;;;;;;;5111524;28;21114;-88
2021/09/25 00:31:56;;;;;;;8.45;4.05;;;;;;;;;;5094786;28;20107;-88
2021/09/25 00:34:21;;;;;;;9.68;4.53;;;;;;;;;;5095856;28;20023;-88
2021/09/25 00:36:47;;;;;;;12.27;4.95;;;;;;;;;;5111691;28;20023;-89
2021/09/25 00:39:12;;;;;;;11.82;5.32;;;;;;;;;;5111637;28;20031;-89
2021/09/25 00:41:37;;;;;;;9.82;4.78;;;;;;;;;;5111678;28;20118;-88
2021/09/25 00:44:02;;;;;;;12.00;5.32;;;;;;;;;;5111511;28;20020;-88
2021/09/25 00:46:28;;;;;;;10.23;4.93;;;;;;;;;;5095555;28;20032;-89
2021/09/25 00:48:53;;;;;;;10.77;5.05;;;;;;;;;;5094153;28;20463;-89
2021/09/25 00:51:18;;;;;;;9.38;4.50;;;;;;;;;;5111198;28;20036;-89
2021/09/25 00:53:43;;;;;;;10.70;5.00;;;;;;;;;;5111159;28;20024;-88
2021/09/25 00:56:09;;;;;;;11.38;4.72;;;;;;;;;;5094053;28;20046;-89
2021/09/25 00:58:38;;;;;;;10.55;4.20;;;;;;;;;;5111147;28;20016;-89
2021/09/25 01:01:04;;;;;;;9.93;4.57;;;;;;;;;;5100018;28;20024;-89
2021/09/25 01:03:29;;;;;;;13.80;5.00;;;;;;;;;;5090897;28;20081;-89
2021/09/25 01:05:54;;;;;;;10.30;4.93;;;;;;;;;;5111110;28;20418;-88
2021/09/25 01:08:22;;;;;;;13.02;4.32;;;;;;;;;;5110957;28;20027;-88
2021/09/25 01:10:49;;;;;;;13.70;5.72;;;;;;;;;;5111199;28;20020;-88
2021/09/25 01:13:14;;;;;;;13.77;5.43;;;;;;;;;;5110765;28;20039;-89
2021/09/25 01:15:39;;;;;;;12.27;5.25;;;;;;;;;;5095036;28;20016;-89
2021/09/25 01:18:04;;;;;;;14.77;5.00;;;;;;;;;;5091742;28;20109;-89
2021/09/25 01:20:30;;;;;;;12.68;4.72;;;;;;;;;;5109277;28;20008;-89
2021/09/25 01:22:55;;;;;;;13.15;5.32;;;;;;;;;;5086660;28;20030;-88
2021/09/25 01:25:20;;;;;;;13.65;6.60;;;;;;;;;;5081450;28;20070;-88
2021/09/25 01:27:45;;;;;;;13.93;5.10;;;;;;;;;;5080027;28;20016;-89
2021/09/25 01:30:12;;;;;;;12.73;5.90;;;;;;;;;;5108980;28;20047;-88
2021/09/25 01:32:38;;;;;;;14.98;5.30;;;;;;;;;;5108740;28;20024;-89
2021/09/25 01:35:04;;;;;;;13.70;6.28;;;;;;;;;;5109144;28;20489;-88
2021/09/25 01:37:30;;;;;;;12.20;5.15;;;;;;;;;;5108882;28;20077;-88
2021/09/25 01:39:55;;;;;;;16.33;5.95;;;;;;;;;;5093237;28;20456;-89
2021/09/25 01:42:20;;;;;;;14.57;5.35;;;;;;;;;;5108515;28;20035;-89
2021/09/25 01:44:46;;;;;;;11.93;6.03;;;;;;;;;;5108916;28;20023;-89
2021/09/25 01:47:12;;;;;;;12.30;5.22;;;;;;;;;;5092052;28;20100;-88
2021/09/25 01:49:37;;;;;;;14.00;6.20;;;;;;;;;;5109933;28;20048;-89
2021/09/25 01:52:02;;;;;;;15.23;5.97;;;;;;;;;;5093271;28;20020;-89
2021/09/25 01:54:27;;;;;;;15.82;6.40;;;;;;;;;;5110295;28;20161;-89
2021/09/25 01:56:53;;;;;;;16.13;6.55;;;;;;;;;;5094270;28;20371;-89
2021/09/25 01:59:18;;;;;;;13.95;5.82;;;;;;;;;;5092690;28;20455;-89
2021/09/25 02:01:43;;;;;;;12.77;5.63;;;;;;;;;;5109637;28;20035;-88
2021/09/25 02:04:08;;;;;;;17.05;6.45;;;;;;;;;;5093175;28;20028;-89
2021/09/25 02:06:34;;;;;;;16.42;6.40;;;;;;;;;;5094381;28;20398;-89
2021/09/25 02:08:59;;;;;;;16.92;6.63;;;;;;;;;;5094307;28;20482;-89
2021/09/25 02:11:24;;;;;;;18.42;6.20;;;;;;;;;;5080219;28;20020;-89
2021/09/25 02:13:49;;;;;;;14.85;5.50;;;;;;;;;;5094006;28;20032;-89
2021/09/25 02:16:15;;;;;;;18.08;6.40;;;;;;;;;;5093402;28;20464;-89
2021/09/25 02:18:40;;;;;;;13.50;6.68;;;;;;;;;;5094074;28;20448;-89
2021/09/25 02:21:05;;;;;;;16.15;6.35;;;;;;;;;;5109579;28;20479;-89
2021/09/25 02:23:32;;;;;;;15.77;6.05;;;;;;;;;;5093982;28;20023;-89
2021/09/25 02:25:57;;;;;;;13.73;6.15;;;;;;;;;;5092679;28;20027;-89
2021/09/25 02:28:22;;;;;;;16.90;6.30;;;;;;;;;;5092972;28;20425;-89
2021/09/25 02:30:48;;;;;;;13.95;6.47;;;;;;;;;;5108956;28;20111;-89
2021/09/25 02:33:13;;;;;;;18.23;6.53;;;;;;;;;;5108232;28;20031;-89
2021/09/25 02:35:38;;;;;;;19.67;6.53;;;;;;;;;;5109807;28;20442;-88
2021/09/25 02:38:04;;;;;;;15.20;6.47;;;;;;;;;;5093030;28;20012;-89
2021/09/25 02:40:29;;;;;;;19.45;7.13;;;;;;;;;;5109404;28;20426;-89
2021/09/25 02:42:54;;;;;;;15.98;7.20;;;;;;;;;;5092528;28;20055;-89
2021/09/25 02:45:20;;;;;;;16.25;6.30;;;;;;;;;;5109236;28;20032;-89
2021/09/25 02:47:45;;;;;;;17.20;6.68;;;;;;;;;;5098755;28;20020;-89
2021/09/25 02:50:13;;;;;;;18.42;7.30;;;;;;;;;;5088243;28;20463;-89
2021/09/25 02:52:38;;;;;;;16.65;6.82;;;;;;;;;;5109290;28;20367;-89
2021/09/25 02:55:04;;;;;;;18.75;6.63;;;;;;;;;;5109440;28;20149;-89
2021/09/25 02:57:29;;;;;;;18.50;7.03;;;;;;;;;;5102744;28;20407;-89
2021/09/25 02:59:55;;;;;;;18.55;7.03;;;;;;;;;;5084295;28;20020;-89
2021/09/25 03:02:20;;;;;;;19.70;7.13;;;;;;;;;;5109239;28;20020;-89
2021/09/25 03:04:45;;;;;;;17.92;7.47;;;;;;;;;;5109263;28;20536;-89
2021/09/25 03:07:10;;;;;;;18.52;7.15;;;;;;;;;;5109012;28;20024;-89
2021/09/25 03:09:35;;;;;;;18.15;6.68;;;;;;;;;;5092238;28;20028;-89
2021/09/25 03:12:01;;;;;;;18.75;7.50;;;;;;;;;;5103463;28;20036;-89
2021/09/25 03:14:26;;;;;;;20.48;7.88;;;;;;;;;;5108692;28;20455;-89
2021/09/25 03:16:52;;;;;;;18.83;7.18;;;;;;;;;;5109257;28;20384;-89
2021/09/25 03:19:17;;;;;;;24.73;8.10;;;;;;;;;;5108980;28;20020;-89
2021/09/25 03:21:42;;;;;;;18.58;7.13;;;;;;;;;;5109204;28;20111;-89
2021/09/25 03:24:07;;;;;;;20.00;7.30;;;;;;;;;;5108970;28;20467;-89
2021/09/25 03:26:33;;;;;;;18.73;7.50;;;;;;;;;;5108895;28;20020;-89
2021/09/25 03:28:58;;;;;;;17.27;6.97;;;;;;;;;;5108852;28;20055;-88
2021/09/25 03:31:23;;;;;;;15.23;6.55;;;;;;;;;;5108242;28;20016;-89
2021/09/25 03:33:48;;;;;;;16.60;7.05;;;;;;;;;;5093082;28;20020;-89
2021/09/25 03:36:14;;;;;;;17.20;7.95;;;;;;;;;;5095281;28;20016;-89
2021/09/25 03:38:39;;;;;;;19.85;8.27;;;;;;;;;;5090897;28;20022;-89
2021/09/25 03:41:04;;;;;;;15.82;7.18;;;;;;;;;;5110762;28;20030;-89
2021/09/25 03:43:29;;;;;;;22.00;7.88;;;;;;;;;;5096827;28;20020;-89
2021/09/25 03:45:55;;;;;;;23.38;8.23;;;;;;;;;;5112538;28;20464;-89
2021/09/25 03:48:20;;;;;;;22.02;8.00;;;;;;;;;;5112788;28;20058;-88
2021/09/25 03:50:46;;;;;;;21.85;7.72;;;;;;;;;;5112416;28;20387;-89
2021/09/25 03:53:11;;;;;;;24.65;8.32;;;;;;;;;;5099046;28;20081;-89
2021/09/25 03:55:36;;;;;;;20.98;7.78;;;;;;;;;;5095714;28;20375;-89
2021/09/25 03:58:02;;;;;;;16.45;6.82;;;;;;;;;;5082932;28;20013;-89
2021/09/25 04:00:27;;;;;;;17.95;7.20;;;;;;;;;;5090439;28;20030;-89
2021/09/25 04:02:52;;;;;;;21.63;7.30;;;;;;;;;;5094965;28;20436;-89
2021/09/25 04:05:18;;;;;;;17.00;7.63;;;;;;;;;;5110955;28;20020;-89
2021/09/25 04:07:43;;;;;;;15.60;6.60;;;;;;;;;;5110651;28;20053;-89
2021/09/25 04:10:09;;;;;;;15.65;6.82;;;;;;;;;;5110941;28;20024;-89
2021/09/25 04:12:34;;;;;;;15.95;6.28;;;;;;;;;;5110298;28;20023;-89
2021/09/25 04:14:59;;;;;;;16.08;7.13;;;;;;;;;;5110441;28;20051;-89
2021/09/25 04:17:24;;;;;;;20.73;6.88;;;;;;;;;;5105282;28;20023;-89
2021/09/25 04:19:50;;;;;;;17.65;7.45;;;;;;;;;;5112089;28;20379;-89
2021/09/25 04:22:15;;;;;;;16.90;7.35;;;;;;;;;;5112231;28;20027;-88
2021/09/25 04:24:42;;;;;;;18.45;6.95;;;;;;;;;;5094821;28;20020;-89
2021/09/25 04:27:07;;;;;;;17.20;6.53;;;;;;;;;;5095073;28;20097;-89
2021/09/25 04:29:32;;;;;;;22.48;7.72;;;;;;;;;;5094627;28;20111;-89
2021/09/25 04:31:57;;;;;;;19.48;7.45;;;;;;;;;;5111792;28;20676;-89
2021/09/25 04:34:23;;;;;;;17.58;7.78;;;;;;;;;;5111908;28;20020;-89
2021/09/25 04:36:49;;;;;;;19.58;6.63;;;;;;;;;;5107293;28;20436;-89
2021/09/25 04:39:14;;;;;;;19.15;7.03;;;;;;;;;;5085621;28;20031;-89
2021/09/25 04:41:39;;;;;;;23.88;7.75;;;;;;;;;;5111561;28;20027;-89
2021/09/25 04:44:04;;;;;;;21.42;7.35;;;;;;;;;;5111331;28;20028;-89
2021/09/25 04:46:30;;;;;;;23.60;8.23;;;;;;;;;;5111865;28;20062;-89
2021/09/25 04:48:55;;;;;;;18.60;7.60;;;;;;;;;;5095736;28;20016;-89
2021/09/25 04:51:20;;;;;;;20.25;7.82;;;;;;;;;;5111157;28;20032;-89
2021/09/25 04:53:46;;;;;;;20.40;7.18;;;;;;;;;;5094575;28;20019;-89
2021/09/25 04:56:12;;;;;;;20.92;7.35;;;;;;;;;;5111678;28;20048;-89
2021/09/25 04:58:38;;;;;;;20.33;7.53;;;;;;;;;;5111696;28;20024;-89
2021/09/25 05:01:03;;;;;;;19.30;7.63;;;;;;;;;;5095647;28;20008;-89
2021/09/25 05:03:29;;;;;;;22.73;8.00;;;;;;;;;;5094904;28;20482;-89
2021/09/25 05:05:54;;;;;;;24.38;8.60;;;;;;;;;;5095452;28;20016;-89
2021/09/25 05:08:19;;;;;;;21.35;8.73;;;;;;;;;;5111059;28;20020;-89
2021/09/25 05:10:45;;;;;;;17.80;7.78;;;;;;;;;;5111047;28;20027;-89
2021/09/25 05:13:10;;;;;;;21.08;8.30;;;;;;;;;;5095052;28;20020;-89
2021/09/25 05:15:35;;;;;;;20.92;8.52;;;;;;;;;;5110992;28;20371;-89
2021/09/25 05:18:00;;;;;;;24.90;9.65;;;;;;;;;;5111227;28;20016;-89
2021/09/25 05:20:25;;;;;;;22.65;8.52;;;;;;;;;;5110936;28;20023;-89
2021/09/25 05:22:51;;;;;;;25.30;9.30;;;;;;;;;;5110590;28;20027;-89
2021/09/25 05:25:16;;;;;;;26.52;9.90;;;;;;;;;;5110929;28;20369;-89
2021/09/25 05:27:42;;;;;;;28.70;10.35;;;;;;;;;;5094653;28;20720;-89
2021/09/25 05:30:08;;;;;;;23.45;10.30;;;;;;;;;;5093840;28;20041;-88
2021/09/25 05:32:33;;;;;;;23.73;9.65;;;;;;;;;;5093517;28;20487;-88
2021/09/25 05:34:59;;;;;;;31.17;11.32;;;;;;;;;;5096280;28;20012;-87
2021/09/25 05:37:24;;;;;;;31.40;11.65;;;;;;;;;;5093706;28;20016;-89
2021/09/25 05:39:54;;;;;;;30.58;11.07;;;;;;;;;;5093584;28;20368;-89
2021/09/25 05:42:20;;;;;;;25.38;11.27;;;;;;;;;;5093474;28;20531;-89
2021/09/25 05:44:45;;;;;;;24.23;9.45;;;;;;;;;;5093382;28;20016;-89
2021/09/25 05:47:11;;;;;;;19.08;8.40;;;;;;;;;;5093536;28;20023;-89
2021/09/25 05:49:36;;;;;;;25.35;9.48;;;;;;;;;;5110173;28;20383;-89
2021/09/25 05:52:03;;;;;;;27.88;11.05;;;;;;;;;;5106744;28;20028;-89
2021/09/25 05:54:28;;;;;;;25.60;8.43;;;;;;;;;;5083772;28;20763;-89
2021/09/25 05:56:53;;;;;;;24.63;10.55;;;;;;;;;;5109943;28;20022;-89
2021/09/25 05:59:18;;;;;;;22.05;8.75;;;;;;;;;;5092875;28;20022;-89
2021/09/25 06:01:44;;;;;;;26.30;10.55;;;;;;;;;;5109671;28;20160;-89
2021/09/25 06:04:09;;;;;;;26.92;10.57;;;;;;;;;;5092705;28;20382;-89
2021/09/25 06:06:34;;;;;;;22.65;9.35;;;;;;;;;;5092895;28;20024;-88
2021/09/25 06:08:59;;;;;;;28.98;9.52;;;;;;;;;;5110248;28;20028;-89
2021/09/25 06:11:25;;;;;;;19.85;8.45;;;;;;;;;;5101080;28;20534;-89
2021/09/25 06:13:50;;;;;;;21.17;8.80;;;;;;;;;;5098670;28;20027;-89
2021/09/25 06:16:15;;;;;;;24.88;10.18;;;;;;;;;;5109471;28;20020;-88
2021/09/25 06:18:40;;;;;;;21.52;9.77;;;;;;;;;;5093893;28;20020;-89
2021/09/25 06:21:05;;;;;;;20.67;8.73;;;;;;;;;;5093328;28;20020;-89
2021/09/25 06:23:31;;;;;;;23.75;8.25;;;;;;;;;;5092368;28;20024;-89
2021/09/25 06:25:56;;;;;;;21.55;8.50;;;;;;;;;;5091807;28;20024;-89
2021/09/25 06:28:21;;;;;;;21.45;9.05;;;;;;;;;;5107874;28;20084;-89
2021/09/25 06:30:46;;;;;;;25.92;10.45;;;;;;;;;;5091358;28;20463;-89
2021/09/25 06:33:11;;;;;;;24.17;9.70;;;;;;;;;;5093413;28;20039;-89
2021/09/25 06:35:37;;;;;;;22.83;9.05;;;;;;;;;;5093527;28;20016;-89
2021/09/25 06:38:02;;;;;;;19.88;8.38;;;;;;;;;;5093508;28;20107;-89
2021/09/25 06:40:28;;;;;;;22.73;9.30;;;;;;;;;;5109471;28;20455;-89
2021/09/25 06:42:53;;;;;;;22.10;9.90;;;;;;;;;;5093734;28;20027;-89
2021/09/25 06:45:18;;;;;;;20.88;8.93;;;;;;;;;;5108841;28;20032;-89
2021/09/25 06:47:43;;;;;;;21.58;8.93;;;;;;;;;;5109263;28;20376;-89
2021/09/25 06:50:09;;;;;;;23.50;9.00;;;;;;;;;;5092888;28;20024;-89
2021/09/25 06:52:34;;;;;;;18.40;7.70;;;;;;;;;;5079994;28;20055;-89
2021/09/25 06:55:00;;;;;;;23.67;10.38;;;;;;;;;;5109025;28;20031;-89
2021/09/25 06:57:26;;;;;;;22.75;9.70;;;;;;;;;;5092017;28;20538;-89
2021/09/25 06:59:51;;;;;;;25.52;9.52;;;;;;;;;;5093299;28;20095;-89
2021/09/25 07:02:17;;;;;;;22.58;9.13;;;;;;;;;;5108731;28;20023;-89
2021/09/25 07:04:42;;;;;;;24.85;10.98;;;;;;;;;;5099073;28;20681;-89
2021/09/25 07:07:07;;;;;;;22.05;8.32;;;;;;;;;;5087470;28;20026;-89
2021/09/25 07:09:32;;;;;;;24.25;10.30;;;;;;;;;;5109017;28;20020;-89
2021/09/25 07:11:58;;;;;;;23.70;9.68;;;;;;;;;;5091392;28;20367;-89
2021/09/25 07:14:23;;;;;;;20.67;8.02;;;;;;;;;;5091938;28;20020;-89
2021/09/25 07:16:48;;;;;;;22.33;8.40;;;;;;;;;;5092719;28;20165;-89
2021/09/25 07:19:13;;;;;;;21.58;8.50;;;;;;;;;;5091829;28;20008;-89
2021/09/25 07:21:39;;;;;;;20.25;8.63;;;;;;;;;;5093228;28;20620;-89
2021/09/25 07:24:04;;;;;;;20.52;8.73;;;;;;;;;;5091646;28;20012;-90
2021/09/25 07:26:29;;;;;;;17.88;8.27;;;;;;;;;;5093280;28;20020;-89
2021/09/25 07:28:54;;;;;;;25.42;9.15;;;;;;;;;;5108025;28;20019;-89
2021/09/25 07:31:20;;;;;;;19.25;8.35;;;;;;;;;;5091347;28;20677;-89
2021/09/25 07:33:45;;;;;;;21.75;10.13;;;;;;;;;;5091965;28;20475;-89
2021/09/25 07:36:10;;;;;;;22.90;9.60;;;;;;;;;;5091174;28;20012;-89
2021/09/25 07:38:36;;;;;;;23.48;9.32;;;;;;;;;;5092293;28;20012;-89
2021/09/25 07:41:01;;;;;;;23.98;9.73;;;;;;;;;;5092481;28;20521;-89
2021/09/25 07:43:26;;;;;;;24.42;10.13;;;;;;;;;;5108185;28;20050;-88
2021/09/25 07:45:54;;;;;;;25.83;10.18;;;;;;;;;;5092822;28;20070;-88
2021/09/25 07:48:19;;;;;;;25.20;10.02;;;;;;;;;;5092252;28;20024;-88
2021/09/25 07:50:45;;;;;;;21.33;9.75;;;;;;;;;;5089030;28;20077;-89
2021/09/25 07:53:10;;;;;;;20.15;9.68;;;;;;;;;;5089665;28;20121;-89
2021/09/25 07:55:36;;;;;;;17.25;7.78;;;;;;;;;;5091449;28;20028;-89
2021/09/25 07:58:02;;;;;;;19.80;9.80;;;;;;;;;;5093895;28;20016;-89
2021/09/25 08:00:27;;;;;;;22.90;9.32;;;;;;;;;;5090976;28;20020;-89
2021/09/25 08:02:52;;;;;;;15.98;6.57;;;;;;;;;;5108439;28;20391;-89
2021/09/25 08:05:18;;;;;;;20.15;8.68;;;;;;;;;;5092275;28;20035;-89
2021/09/25 08:07:43;;;;;;;24.83;10.43;;;;;;;;;;5091734;28;20026;-89
2021/09/25 08:10:09;;;;;;;27.60;9.07;;;;;;;;;;5091360;28;20776;-89
2021/09/25 08:12:35;;;;;;;19.73;8.65;;;;;;;;;;5108223;28;20016;-89
2021/09/25 08:15:00;;;;;;;21.38;8.00;;;;;;;;;;5108150;28;20046;-89
2021/09/25 08:17:25;;;;;;;24.80;9.70;;;;;;;;;;5092399;28;20012;-89
2021/09/25 08:19:51;;;;;;;19.77;9.30;;;;;;;;;;5091279;28;20357;-89
2021/09/25 08:22:16;;;;;;;24.50;11.13;;;;;;;;;;5108069;28;20027;-88
2021/09/25 08:24:42;;;;;;;22.52;9.38;;;;;;;;;;5091290;28;20020;-88
2021/09/25 08:27:08;;;;;;;22.88;8.93;;;;;;;;;;5108425;28;20020;-89
2021/09/25 08:29:33;;;;;;;22.85;7.63;;;;;;;;;;5095865;28;20459;-89
2021/09/25 08:31:59;;;;;;;15.00;6.95;;;;;;;;;;5111827;28;20054;-89
2021/09/25 08:34:24;;;;;;;19.38;8.40;;;;;;;;;;5111809;28;20467;-89
2021/09/25 08:36:49;;;;;;;18.10;8.60;;;;;;;;;;5094295;28;20020;-88
2021/09/25 08:39:17;;;;;;;14.07;5.72;;;;;;;;;;5094853;28;20020;-89
2021/09/25 08:41:42;;;;;;;15.10;7.30;;;;;;;;;;5110095;27;20042;-89
2021/09/25 08:44:07;;;;;;;13.20;5.65;;;;;;;;;;5111440;28;20012;-89
2021/09/25 08:46:33;;;;;;;15.77;6.97;;;;;;;;;;5110900;28;20020;-89
2021/09/25 08:48:59;;;;;;;11.93;5.82;;;;;;;;;;5111127;28;20024;-89
2021/09/25 08:51:24;;;;;;;19.05;6.47;;;;;;;;;;5093929;28;20032;-89
2021/09/25 08:53:49;;;;;;;14.68;6.05;;;;;;;;;;5093917;28;20073;-89
2021/09/25 08:56:14;;;;;;;12.75;5.40;;;;;;;;;;5095313;28;20016;-89
2021/09/25 08:58:40;;;;;;;13.13;4.57;;;;;;;;;;5095134;28;20020;-89
2021/09/25 09:01:07;;;;;;;15.95;5.63;;;;;;;;;;5098724;28;20023;-90
2021/09/25 09:03:33;;;;;;;15.68;5.50;;;;;;;;;;5094860;28;20024;-88
2021/09/25 09:06:16;;;;;;;11.38;6.13;;;;;;;;;;5111017;28;20050;-89
2021/09/25 09:08:42;;;;;;;12.15;5.20;;;;;;;;;;5110490;28;20076;-89
2021/09/25 09:11:08;;;;;;;13.73;4.93;;;;;;;;;;5095274;28;20016;-89
2021/09/25 09:13:35;;;;;;;8.75;3.15;;;;;;;;;;5110831;28;20030;-89
2021/09/25 09:16:01;;;;;;;8.73;4.45;;;;;;;;;;5110530;28;20025;-89
2021/09/25 09:18:26;;;;;;;11.40;4.97;;;;;;;;;;5110760;28;20532;-89
2021/09/25 09:21:01;;;;;;;11.60;5.13;;;;;;;;;;5110721;28;20028;-89
2021/09/25 09:23:26;;;;;;;11.05;4.57;;;;;;;;;;5110442;28;20037;-89
2021/09/25 09:25:51;;;;;;;9.05;3.53;;;;;;;;;;5110512;28;20024;-89
2021/09/25 09:28:24;;;;;;;11.18;4.45;;;;;;;;;;5094803;28;20039;-89
2021/09/25 09:30:51;;;;;;;9.65;4.50;;;;;;;;;;5092815;28;20032;-90
2021/09/25 09:33:42;;;;;;;10.05;3.83;;;;;;;;;;5110095;28;20102;-89
2021/09/25 09:36:12;;;;;;;14.00;6.07;;;;;;;;;;5077784;28;20467;-89
2021/09/25 09:38:39;;;;;;;10.95;4.45;;;;;;;;;;5094167;28;20086;-89
2021/09/25 09:41:04;;;;;;;9.63;4.30;;;;;;;;;;5093508;28;20017;-89
2021/09/25 09:43:29;;;;;;;10.13;4.57;;;;;;;;;;5093106;28;20034;-89
2021/09/25 09:45:56;;;;;;;10.38;4.72;;;;;;;;;;5092722;28;20024;-89
2021/09/25 09:48:21;;;;;;;10.70;4.47;;;;;;;;;;5092646;28;20032;-89
2021/09/25 09:50:47;;;;;;;8.88;4.03;;;;;;;;;;5102532;28;20426;-89
2021/09/25 09:53:13;;;;;;;9.10;4.35;;;;;;;;;;5090254;28;20020;-89
2021/09/25 09:55:38;;;;;;;8.43;3.50;;;;;;;;;;5091614;28;20012;-89
2021/09/25 09:58:05;;;;;;;9.88;3.90;;;;;;;;;;5092664;28;20008;-89
2021/09/25 10:00:31;;;;;;;9.15;3.17;;;;;;;;;;5093782;28;20371;-89
2021/09/25 10:02:57;;;;;;;6.20;3.63;;;;;;;;;;5103957;28;20040;-89
2021/09/25 10:05:22;;;;;;;7.93;3.53;;;;;;;;;;5092568;28;20024;-89
2021/09/25 10:07:47;;;;;;;9.95;4.13;;;;;;;;;;5106679;28;20024;-89
2021/09/25 10:10:13;;;;;;;10.52;3.85;;;;;;;;;;5098228;28;20060;-89
2021/09/25 10:12:39;;;;;;;8.82;3.80;;;;;;;;;;5093008;28;20012;-89
2021/09/25 10:15:05;;;;;;;10.40;3.60;;;;;;;;;;5103518;28;20146;-88
2021/09/25 10:17:30;;;;;;;7.00;3.38;;;;;;;;;;5092451;28;20035;-89
2021/09/25 10:19:56;;;;;;;7.45;3.75;;;;;;;;;;5106444;28;20048;-89
2021/09/25 10:22:29;;;;;;;6.45;3.10;;;;;;;;;;5106138;28;20450;-89
2021/09/25 10:24:58;;;;;;;9.98;3.75;;;;;;;;;;5106437;28;20550;-89
2021/09/25 10:27:28;;;;;;;10.50;3.50;;;;;;;;;;5092326;28;20382;-88
2021/09/25 10:29:53;;;;;;;7.35;3.47;;;;;;;;;;5099010;28;20021;-89
2021/09/25 10:32:21;;;;;;;7.68;3.30;;;;;;;;;;5105325;28;20027;-88
2021/09/25 10:34:52;;;;;;;4.90;2.65;;;;;;;;;;5092246;28;20469;-89
2021/09/25 10:37:18;;;;;;;8.33;3.20;;;;;;;;;;5109648;28;20429;-89
2021/09/25 10:39:53;;;;;;;4.93;2.90;;;;;;;;;;5092128;28;20024;-88
2021/09/25 10:42:18;;;;;;;6.32;2.70;;;;;;;;;;5108807;28;20031;-89
2021/09/25 10:44:48;;;;;;;6.25;2.55;;;;;;;;;;5107787;28;20460;-89
2021/09/25 10:47:20;;;;;;;6.20;2.35;;;;;;;;;;5093007;28;20028;-89
2021/09/25 10:49:47;;;;;;;5.18;2.10;;;;;;;;;;5103881;28;20114;-89
2021/09/25 10:52:15;;;;;;;5.15;2.67;;;;;;;;;;5092037;28;20020;-89
2021/09/25 10:54:40;;;;;;;6.80;3.00;;;;;;;;;;5092800;28;20024;-89
2021/09/25 10:57:14;;;;;;;4.95;2.42;;;;;;;;;;5091777;28;20037;-89
2021/09/25 10:59:58;;;;;;;4.93;2.65;;;;;;;;;;5093439;28;20024;-89
2021/09/25 11:02:40;;;;;;;4.20;2.58;;;;;;;;;;5107557;28;20088;-90
2021/09/25 11:05:05;;;;;;;5.57;2.95;;;;;;;;;;5092383;28;20119;-89
2021/09/25 11:07:41;;;;;;;5.10;3.08;;;;;;;;;;5092261;28;20126;-89
2021/09/25 11:10:07;;;;;;;4.20;2.50;;;;;;;;;;5109023;28;20029;-89
2021/09/25 11:12:42;;;;;;;5.82;2.60;;;;;;;;;;5104442;28;20426;-90
2021/09/25 11:15:28;;;;;;;4.47;2.65;;;;;;;;;;5086449;28;20353;-89
2021/09/25 11:18:13;;;;;;;6.18;3.08;;;;;;;;;;5109069;28;20467;-90
2021/09/25 11:20:38;;;;;;;6.43;3.38;;;;;;;;;;5092875;28;20027;-89
2021/09/25 11:23:03;;;;;;;5.65;3.03;;;;;;;;;;5092085;28;20020;-90
2021/09/25 11:25:30;;;;;;;6.18;3.22;;;;;;;;;;5096059;28;20399;-90
2021/09/25 11:27:56;;;;;;;8.88;3.10;;;;;;;;;;5091930;28;20020;-90
2021/09/25 11:30:29;;;;;;;9.63;3.85;;;;;;;;;;5097966;28;20028;-90
2021/09/25 11:32:55;;;;;;;9.35;3.83;;;;;;;;;;5090682;28;20020;-90
2021/09/25 11:35:25;;;;;;;9.27;4.85;;;;;;;;;;5081611;28;20019;-89
2021/09/25 11:37:56;;;;;;;8.45;3.83;;;;;;;;;;5092105;28;20020;-89
2021/09/25 11:40:25;;;;;;;12.93;4.50;;;;;;;;;;5098810;28;20020;-89
2021/09/25 11:42:52;;;;;;;7.90;4.32;;;;;;;;;;5092775;28;20261;-89
2021/09/25 11:45:18;;;;;;;6.82;3.80;;;;;;;;;;5091863;28;20020;-89
2021/09/25 11:47:46;;;;;;;8.93;4.65;;;;;;;;;;5093281;28;20016;-89
2021/09/25 11:50:15;;;;;;;8.50;4.55;;;;;;;;;;5108647;28;20082;-89
2021/09/25 11:52:41;;;;;;;7.90;3.75;;;;;;;;;;5108290;28;20511;-89
2021/09/25 11:55:07;;;;;;;7.88;3.60;;;;;;;;;;5108683;28;20095;-88
2021/09/25 11:57:32;;;;;;;6.43;3.40;;;;;;;;;;5108790;28;20026;-88
2021/09/25 11:59:57;;;;;;;6.63;3.65;;;;;;;;;;5093054;28;20527;-88
2021/09/25 12:02:39;;;;;;;5.88;3.00;;;;;;;;;;5110625;28;20072;-88
2021/09/25 12:05:09;;;;;;;7.32;3.47;;;;;;;;;;5096989;28;20024;-89
2021/09/25 12:07:38;;;;;;;5.20;2.92;;;;;;;;;;5098197;28;20027;-88
2021/09/25 12:10:03;;;;;;;8.00;3.78;;;;;;;;;;5112646;28;20497;-88
2021/09/25 12:12:29;;;;;;;7.13;3.45;;;;;;;;;;5096360;28;20103;-88
2021/09/25 12:14:55;;;;;;;10.68;3.42;;;;;;;;;;5112606;28;20020;-88
2021/09/25 12:17:21;;;;;;;6.50;3.15;;;;;;;;;;5112185;28;20476;-88
2021/09/25 12:19:46;;;;;;;6.00;3.20;;;;;;;;;;5096516;28;20149;-88
2021/09/25 12:22:23;;;;;;;5.72;3.08;;;;;;;;;;5112419;28;20475;-88
2021/09/25 12:24:48;;;;;;;8.52;3.40;;;;;;;;;;5096970;28;20016;-88
2021/09/25 12:27:24;;;;;;;4.88;2.40;;;;;;;;;;5112087;28;20368;-88
2021/09/25 12:29:50;;;;;;;8.07;3.88;;;;;;;;;;5095107;28;20412;-89
2021/09/25 12:32:18;;;;;;;7.70;3.72;;;;;;;;;;5096199;28;20145;-89
2021/09/25 12:34:47;;;;;;;6.57;2.97;;;;;;;;;;5096268;28;20424;-88
2021/09/25 12:37:12;;;;;;;6.78;3.00;;;;;;;;;;5098492;28;20408;-88
2021/09/25 12:39:39;;;;;;;4.60;2.90;;;;;;;;;;5111899;28;20130;-88
2021/09/25 12:42:04;;;;;;;7.53;2.80;;;;;;;;;;5096118;28;20016;-88
2021/09/25 12:44:34;;;;;;;6.53;3.22;;;;;;;;;;5111818;28;20031;-88
2021/09/25 12:47:00;;;;;;;6.00;3.10;;;;;;;;;;5094282;28;20016;-88
2021/09/25 12:49:34;;;;;;;6.50;3.38;;;;;;;;;;5094503;28;20532;-88
2021/09/25 12:52:02;;;;;;;5.07;2.40;;;;;;;;;;5094593;28;20471;-88
2021/09/25 12:54:31;;;;;;;6.72;3.40;;;;;;;;;;5094530;28;20108;-88
2021/09/25 12:57:01;;;;;;;7.75;2.97;;;;;;;;;;5115345;27;20012;-90
2021/09/25 12:59:32;;;;;;;5.05;3.00;;;;;;;;;;5107683;28;20016;-89
2021/09/25 13:01:59;;;;;;;6.88;2.80;;;;;;;;;;5093498;28;20020;-89
2021/09/25 13:04:28;;;;;;;4.25;2.55;;;;;;;;;;5096957;28;20012;-89
2021/09/25 13:06:54;;;;;;;6.40;3.08;;;;;;;;;;5094180;28;20047;-90
2021/09/25 13:09:21;;;;;;;6.20;3.13;;;;;;;;;;5095602;28;20061;-90
2021/09/25 13:12:05;;;;;;;5.97;2.58;;;;;;;;;;5111267;28;20022;-89
2021/09/25 13:14:30;;;;;;;5.57;3.13;;;;;;;;;;5110416;28;20012;-90
2021/09/25 13:16:57;;;;;;;5.15;2.72;;;;;;;;;;5105863;28;20065;-90
2021/09/25 13:19:23;;;;;;;5.85;3.35;;;;;;;;;;5094085;28;20024;-90
2021/09/25 13:21:48;;;;;;;7.47;3.20;;;;;;;;;;5095333;28;20035;-89
2021/09/25 13:24:13;;;;;;;6.20;3.50;;;;;;;;;;5110964;28;20352;-89
2021/09/25 13:26:38;;;;;;;6.00;3.53;;;;;;;;;;5094155;28;20009;-89
2021/09/25 13:29:04;;;;;;;7.82;3.17;;;;;;;;;;5095144;28;20093;-89
2021/09/25 13:31:29;;;;;;;4.25;2.53;;;;;;;;;;5093594;28;20012;-90
2021/09/25 13:33:55;;;;;;;4.90;2.28;;;;;;;;;;5110892;28;20111;-90
2021/09/25 13:36:21;;;;;;;4.68;2.78;;;;;;;;;;5110829;28;20107;-89
2021/09/25 13:38:46;;;;;;;6.85;2.55;;;;;;;;;;5110930;28;20095;-90
2021/09/25 13:41:12;;;;;;;6.75;2.78;;;;;;;;;;5094992;28;20047;-89
2021/09/25 13:43:37;;;;;;;4.15;2.50;;;;;;;;;;5110704;28;20016;-90
2021/09/25 13:46:02;;;;;;;4.15;2.75;;;;;;;;;;5093589;28;20077;-89
2021/09/25 13:48:27;;;;;;;7.35;2.78;;;;;;;;;;5094667;28;20414;-90
2021/09/25 13:50:53;;;;;;;4.75;2.45;;;;;;;;;;5110636;28;20030;-89
2021/09/25 13:53:18;;;;;;;4.93;2.75;;;;;;;;;;5093735;28;20353;-90
2021/09/25 13:55:43;;;;;;;4.95;2.60;;;;;;;;;;5092680;28;20013;-90
2021/09/25 13:58:08;;;;;;;5.32;2.80;;;;;;;;;;5092805;28;20107;-90
2021/09/25 14:00:33;;;;;;;6.60;2.80;;;;;;;;;;5095007;28;20008;-90
2021/09/25 14:02:59;;;;;;;4.53;2.58;;;;;;;;;;5094010;28;20061;-89
2021/09/25 14:05:27;;;;;;;5.55;2.70;;;;;;;;;;5092667;28;20096;-90
2021/09/25 14:07:52;;;;;;;6.97;3.03;;;;;;;;;;5093842;28;20012;-90
2021/09/25 14:10:17;;;;;;;7.72;3.42;;;;;;;;;;5093868;28;20479;-90
2021/09/25 14:12:42;;;;;;;7.05;2.25;;;;;;;;;;5109339;28;20016;-89
2021/09/25 14:15:08;;;;;;;5.38;3.28;;;;;;;;;;5092271;28;20027;-90
2021/09/25 14:17:33;;;;;;;3.75;2.20;;;;;;;;;;5094196;28;20328;-90
2021/09/25 14:19:58;;;;;;;4.82;2.70;;;;;;;;;;5110216;28;20023;-90
2021/09/25 14:22:24;;;;;;;7.25;2.55;;;;;;;;;;5109467;28;20114;-90
2021/09/25 14:24:49;;;;;;;4.50;2.67;;;;;;;;;;5094185;28;20019;-90
2021/09/25 14:27:14;;;;;;;5.18;2.30;;;;;;;;;;5109804;28;20031;-90